createdAt,value
2023-01-19T00:01:26.467Z,-2.52
2023-01-19T00:03:52.771Z,-2.53
2023-01-19T00:06:19.407Z,-2.44
2023-01-19T00:08:46.060Z,-2.51
2023-01-19T00:11:13.011Z,-2.58
2023-01-19T00:13:39.979Z,-2.58
2023-01-19T00:16:07.535Z,-2.56
2023-01-19T00:18:33.911Z,-2.55
2023-01-19T00:21:00.234Z,-2.51
2023-01-19T00:23:26.568Z,-2.45
2023-01-19T00:25:52.981Z,-2.50
2023-01-19T00:28:19.865Z,-2.58
2023-01-19T00:30:46.187Z,-2.57
2023-01-19T00:33:15.516Z,-2.61
2023-01-19T00:35:44.900Z,-2.61
2023-01-19T00:38:12.382Z,-2.64
2023-01-19T00:40:38.787Z,-2.61
2023-01-19T00:43:05.214Z,-2.66
2023-01-19T00:45:31.688Z,-2.72
2023-01-19T00:47:58.088Z,-2.72
2023-01-19T00:50:26.192Z,-2.74
2023-01-19T00:52:54.394Z,-2.70
2023-01-19T00:55:20.932Z,-2.67
2023-01-19T00:57:47.289Z,-2.67
2023-01-19T01:00:16.721Z,-2.61
2023-01-19T01:02:44.393Z,-2.56
2023-01-19T01:08:22.227Z,-2.47
2023-01-19T01:10:48.626Z,-2.44
2023-01-19T01:13:21.643Z,-2.46
2023-01-19T01:15:53.189Z,-2.42
2023-01-19T01:18:20.536Z,-2.32
2023-01-19T01:20:46.894Z,-2.35
2023-01-19T01:23:13.837Z,-2.43
2023-01-19T01:25:40.928Z,-2.41
2023-01-19T01:28:08.658Z,-2.35
2023-01-19T01:30:39.870Z,-2.23
2023-01-19T01:33:07.523Z,-2.32
2023-01-19T01:35:33.909Z,-2.20
2023-01-19T01:38:01.114Z,-2.25
2023-01-19T01:40:28.376Z,-2.33
2023-01-19T01:42:54.704Z,-2.25
2023-01-19T01:45:32.223Z,-2.32
2023-01-19T01:48:22.299Z,-2.40
2023-01-19T01:51:16.931Z,-2.39
2023-01-19T01:53:47.123Z,-2.36
2023-01-19T01:56:18.304Z,-2.51
2023-01-19T01:58:45.221Z,-2.50
2023-01-19T02:01:30.379Z,-2.47
2023-01-19T02:03:58.018Z,-2.56
2023-01-19T02:06:25.199Z,-2.52
2023-01-19T02:09:21.200Z,-2.62
2023-01-19T02:12:06.546Z,-2.57
2023-01-19T02:14:37.250Z,-2.62
2023-01-19T02:17:04.520Z,-2.63
2023-01-19T02:19:39.125Z,-2.69
2023-01-19T02:22:15.780Z,-2.76
2023-01-19T02:24:43.044Z,-2.75
2023-01-19T02:27:10.923Z,-2.76
2023-01-19T02:29:37.561Z,-2.79
2023-01-19T02:32:05.588Z,-2.72
2023-01-19T02:34:32.366Z,-2.77
2023-01-19T02:37:06.355Z,-2.81
2023-01-19T02:39:52.569Z,-2.83
2023-01-19T02:42:25.560Z,-2.80
2023-01-19T02:44:54.427Z,-2.85
2023-01-19T02:47:20.938Z,-2.79
2023-01-19T02:49:58.218Z,-2.75
2023-01-19T02:52:26.403Z,-2.73
2023-01-19T02:55:03.758Z,-2.73
2023-01-19T02:57:59.696Z,-2.69
2023-01-19T03:00:51.099Z,-2.72
2023-01-19T03:03:58.387Z,-2.74
2023-01-19T03:06:43.153Z,-2.76
2023-01-19T03:09:29.143Z,-2.77
2023-01-19T03:12:01.998Z,-2.84
2023-01-19T03:14:30.641Z,-2.84
2023-01-19T03:17:02.386Z,-2.86
2023-01-19T03:19:34.264Z,-2.88
2023-01-19T03:22:05.681Z,-2.94
2023-01-19T03:24:40.012Z,-2.97
2023-01-19T03:27:40.781Z,-3.00
2023-01-19T03:30:13.219Z,-3.14
2023-01-19T03:32:46.960Z,-3.18
2023-01-19T03:35:15.898Z,-3.12
2023-01-19T03:37:46.179Z,-3.16
2023-01-19T03:40:13.802Z,-3.17
2023-01-19T03:42:41.060Z,-3.12
2023-01-19T03:45:08.993Z,-3.07
2023-01-19T03:47:36.296Z,-3.12
2023-01-19T03:50:07.518Z,-3.10
2023-01-19T03:52:34.161Z,-3.12
2023-01-19T03:55:05.728Z,-3.09
2023-01-19T03:57:32.156Z,-3.10
2023-01-19T03:59:58.517Z,-3.10
2023-01-19T04:02:25.152Z,-3.20
2023-01-19T04:04:51.496Z,-3.14
2023-01-19T04:07:17.945Z,-3.14
2023-01-19T04:09:44.464Z,-3.15
2023-01-19T04:12:10.750Z,-3.15
2023-01-19T04:14:37.083Z,-3.15
2023-01-19T04:17:03.471Z,-3.14
2023-01-19T04:19:29.783Z,-3.19
2023-01-19T04:21:56.750Z,-3.17
2023-01-19T04:24:23.099Z,-3.12
2023-01-19T04:26:51.786Z,-3.07
2023-01-19T04:29:18.131Z,-3.10
2023-01-19T04:31:44.469Z,-2.98
2023-01-19T04:34:10.864Z,-2.88
2023-01-19T04:36:37.271Z,-2.77
2023-01-19T04:39:04.897Z,-2.78
2023-01-19T04:41:31.537Z,-2.62
2023-01-19T04:43:57.889Z,-2.63
2023-01-19T04:46:24.323Z,-2.59
2023-01-19T04:48:50.696Z,-2.59
2023-01-19T04:51:17.078Z,-2.43
2023-01-19T04:53:43.424Z,-2.28
2023-01-19T04:56:09.742Z,-2.20
2023-01-19T04:58:36.551Z,-2.13
2023-01-19T05:01:07.969Z,-2.07
2023-01-19T05:03:34.354Z,-2.12
2023-01-19T05:06:00.776Z,-2.09
2023-01-19T05:08:27.258Z,-2.04
2023-01-19T05:10:53.617Z,-2.02
2023-01-19T05:13:20.007Z,-1.91
2023-01-19T05:15:46.397Z,-1.80
2023-01-19T05:18:12.738Z,-1.83
2023-01-19T05:20:40.010Z,-1.77
2023-01-19T05:23:06.385Z,-1.70
2023-01-19T05:25:32.684Z,-1.69
2023-01-19T05:27:58.977Z,-1.61
2023-01-19T05:30:25.588Z,-1.62
2023-01-19T05:32:51.879Z,-1.50
2023-01-19T05:35:20.205Z,-1.45
2023-01-19T05:37:51.449Z,-1.38
2023-01-19T05:40:17.877Z,-1.39
2023-01-19T05:42:44.193Z,-1.35
2023-01-19T05:45:11.740Z,-1.31
2023-01-19T05:47:39.812Z,-1.35
2023-01-19T05:50:06.727Z,-1.23
2023-01-19T05:52:33.003Z,-1.27
2023-01-19T05:54:59.497Z,-1.20
2023-01-19T05:57:25.828Z,-1.23
2023-01-19T05:59:52.139Z,-1.17
2023-01-19T06:02:18.509Z,-1.15
2023-01-19T06:04:44.899Z,-1.09
2023-01-19T06:07:11.272Z,-1.10
2023-01-19T06:09:37.586Z,-1.11
2023-01-19T06:12:04.545Z,-1.07
2023-01-19T06:14:32.377Z,-1.08
2023-01-19T06:16:58.802Z,-1.02
2023-01-19T06:19:25.252Z,-1.08
2023-01-19T06:21:52.243Z,-1.09
2023-01-19T06:24:19.155Z,-1.13
2023-01-19T06:26:45.756Z,-1.20
2023-01-19T06:29:12.140Z,-1.05
2023-01-19T06:31:38.550Z,-1.13
2023-01-19T06:34:04.914Z,-1.06
2023-01-19T06:36:31.474Z,-1.13
2023-01-19T06:38:57.777Z,-0.96
2023-01-19T06:41:24.133Z,-1.00
2023-01-19T06:43:50.447Z,-0.99
2023-01-19T06:46:16.775Z,-0.96
2023-01-19T06:48:43.157Z,-0.95
2023-01-19T06:51:09.994Z,-0.99
2023-01-19T06:53:36.271Z,-0.95
2023-01-19T06:56:04.999Z,-0.91
2023-01-19T06:58:31.719Z,-0.79
2023-01-19T07:01:03.223Z,-0.83
2023-01-19T07:03:29.828Z,-0.83
2023-01-19T07:05:56.883Z,-0.77
2023-01-19T07:08:24.164Z,-0.75
2023-01-19T07:11:22.362Z,-0.76
2023-01-19T07:13:38.801Z,-0.77
2023-01-19T07:16:11.476Z,-0.71
2023-01-19T07:18:39.175Z,-0.65
2023-01-19T07:21:06.503Z,-0.68
2023-01-19T07:23:33.264Z,-0.66
2023-01-19T07:26:03.755Z,-0.58
2023-01-19T07:28:31.590Z,-0.64
2023-01-19T07:30:58.377Z,-0.53
2023-01-19T07:33:26.113Z,-0.57
2023-01-19T07:35:52.930Z,-0.55
2023-01-19T07:38:19.542Z,-0.57
2023-01-19T07:40:46.952Z,-0.64
2023-01-19T07:43:14.250Z,-0.51
2023-01-19T07:45:40.714Z,-0.59
2023-01-19T07:48:07.118Z,-0.63
2023-01-19T07:50:33.690Z,-0.66
2023-01-19T07:53:07.221Z,-0.66
2023-01-19T07:55:33.603Z,-0.72
2023-01-19T07:57:59.926Z,-0.67
2023-01-19T08:00:26.351Z,-0.62
2023-01-19T08:08:36.129Z,-0.66
2023-01-19T08:11:02.994Z,-0.65
2023-01-19T08:13:29.380Z,-0.70
2023-01-19T08:15:55.814Z,-0.70
2023-01-19T08:18:22.615Z,-0.70
2023-01-19T08:20:49.041Z,-0.74
2023-01-19T08:23:15.425Z,-0.76
2023-01-19T08:25:44.486Z,-0.73
2023-01-19T08:28:13.387Z,-0.81
2023-01-19T08:30:40.589Z,-0.72
2023-01-19T08:33:10.597Z,-0.71
2023-01-19T08:35:39.357Z,-0.72
2023-01-19T08:38:06.962Z,-0.64
2023-01-19T08:40:38.974Z,-0.67
2023-01-19T08:43:09.095Z,-0.68
2023-01-19T08:45:37.076Z,-0.54
2023-01-19T08:48:04.458Z,-0.50
2023-01-19T08:50:32.449Z,-0.54
2023-01-19T08:53:00.778Z,-0.47
2023-01-19T08:55:28.762Z,-0.35
2023-01-19T08:58:00.397Z,-0.30
2023-01-19T09:00:27.412Z,-0.25
2023-01-19T09:02:54.411Z,-0.13
2023-01-19T09:05:20.887Z,-0.06
2023-01-19T09:07:48.103Z,0.04
2023-01-19T09:10:15.523Z,0.11
2023-01-19T09:12:43.364Z,0.23
2023-01-19T09:15:10.825Z,0.24
2023-01-19T09:17:37.399Z,0.28
2023-01-19T09:20:05.847Z,0.40
2023-01-19T09:22:33.282Z,0.52
2023-01-19T09:25:00.163Z,0.51
2023-01-19T09:27:26.463Z,0.64
2023-01-19T09:29:53.940Z,0.64
2023-01-19T09:32:21.465Z,0.76
2023-01-19T09:34:47.807Z,0.84
2023-01-19T09:37:16.031Z,0.90
2023-01-19T09:39:42.486Z,0.97
2023-01-19T09:42:43.912Z,1.08
2023-01-19T09:45:22.774Z,1.19
2023-01-19T09:47:50.487Z,1.38
2023-01-19T09:50:27.192Z,1.55
2023-01-19T09:53:02.836Z,1.61
2023-01-19T09:55:29.782Z,1.66
2023-01-19T09:57:56.294Z,1.66
2023-01-19T10:00:24.257Z,1.72
2023-01-19T10:03:05.009Z,1.70
2023-01-19T10:05:44.821Z,1.69
2023-01-19T10:08:24.376Z,1.67
2023-01-19T10:10:56.580Z,1.73
2023-01-19T10:13:34.370Z,1.78
2023-01-19T10:16:14.713Z,1.78
2023-01-19T10:18:51.489Z,1.77
2023-01-19T10:21:41.876Z,1.76
2023-01-19T10:24:29.592Z,1.82
2023-01-19T10:26:57.029Z,1.94
2023-01-19T10:29:38.710Z,1.97
2023-01-19T10:32:26.788Z,2.06
2023-01-19T10:34:54.025Z,2.05
2023-01-19T10:37:34.161Z,2.05
2023-01-19T10:40:06.699Z,2.07
2023-01-19T10:42:33.155Z,2.05
2023-01-19T10:44:59.634Z,2.07
2023-01-19T10:47:33.390Z,2.12
2023-01-19T10:49:59.821Z,2.13
2023-01-19T10:52:36.985Z,2.23
2023-01-19T10:55:06.928Z,2.21
2023-01-19T10:57:43.241Z,2.26
2023-01-19T11:00:42.992Z,2.18
2023-01-19T11:03:29.026Z,2.21
2023-01-19T11:06:26.491Z,2.30
2023-01-19T11:09:08.624Z,2.28
2023-01-19T11:11:42.709Z,2.31
2023-01-19T11:14:12.704Z,2.30
2023-01-19T11:16:40.028Z,2.37
2023-01-19T11:19:17.145Z,2.34
2023-01-19T11:21:43.521Z,2.28
2023-01-19T11:24:14.583Z,2.32
2023-01-19T11:26:50.348Z,2.33
2023-01-19T11:29:27.277Z,2.42
2023-01-19T11:31:54.973Z,2.38
2023-01-19T11:34:36.678Z,2.37
2023-01-19T11:37:27.639Z,2.36
2023-01-19T11:40:02.922Z,2.36
2023-01-19T11:42:32.621Z,2.36
2023-01-19T11:45:16.560Z,2.39
2023-01-19T11:47:49.661Z,2.40
2023-01-19T11:50:42.374Z,2.43
2023-01-19T11:53:22.312Z,2.50
2023-01-19T11:56:09.441Z,2.49
2023-01-19T11:58:41.314Z,2.53
2023-01-19T12:01:20.978Z,2.52
2023-01-19T12:03:54.875Z,2.55
2023-01-19T12:06:27.523Z,2.66
2023-01-19T12:08:58.886Z,2.66
2023-01-19T12:11:31.481Z,2.73
2023-01-19T12:13:59.600Z,2.71
2023-01-19T12:16:34.514Z,2.64
2023-01-19T12:19:06.254Z,2.63
2023-01-19T12:21:32.644Z,2.65
2023-01-19T12:24:23.370Z,2.55
2023-01-19T12:26:57.809Z,2.56
2023-01-19T12:29:29.120Z,2.55
2023-01-19T12:32:13.822Z,2.48
2023-01-19T12:34:42.219Z,2.47
2023-01-19T12:37:28.513Z,2.50
2023-01-19T12:40:00.999Z,2.49
2023-01-19T12:42:28.466Z,2.56
2023-01-19T12:45:14.600Z,2.58
2023-01-19T12:47:52.928Z,2.52
2023-01-19T12:50:23.256Z,2.61
2023-01-19T12:52:56.944Z,2.69
2023-01-19T12:55:33.158Z,2.63
2023-01-19T12:58:07.012Z,2.70
2023-01-19T13:00:45.044Z,2.66
2023-01-19T13:03:17.084Z,2.60
2023-01-19T13:05:43.479Z,2.59
2023-01-19T13:08:09.734Z,2.53
2023-01-19T13:11:10.308Z,2.49
2023-01-19T13:13:43.883Z,2.57
2023-01-19T13:16:19.188Z,2.62
2023-01-19T13:18:48.916Z,2.61
2023-01-19T13:21:39.347Z,2.62
2023-01-19T13:24:08.671Z,2.59
2023-01-19T13:26:42.234Z,2.54
2023-01-19T13:29:22.841Z,2.41
2023-01-19T13:31:49.584Z,2.35
2023-01-19T13:34:19.711Z,2.38
2023-01-19T13:36:50.985Z,2.38
2023-01-19T13:39:26.587Z,2.25
2023-01-19T13:41:54.653Z,2.20
2023-01-19T13:44:27.853Z,2.03
2023-01-19T13:46:56.509Z,1.97
2023-01-19T13:49:45.026Z,2.00
2023-01-19T13:52:23.504Z,1.92
2023-01-19T13:54:53.793Z,1.91
2023-01-19T13:57:33.384Z,1.94
2023-01-19T14:00:12.120Z,1.97
2023-01-19T14:02:39.762Z,2.01
2023-01-19T14:05:15.554Z,2.04
2023-01-19T14:07:42.114Z,2.05
2023-01-19T14:10:14.271Z,2.03
2023-01-19T14:12:54.465Z,2.04
2023-01-19T14:15:25.252Z,2.05
2023-01-19T14:18:16.148Z,2.09
2023-01-19T14:21:13.211Z,2.14
2023-01-19T14:23:49.667Z,2.15
2023-01-19T14:26:37.289Z,2.17
2023-01-19T14:29:23.827Z,2.17
2023-01-19T14:32:07.147Z,2.20
2023-01-19T14:34:41.239Z,2.27
2023-01-19T14:37:23.457Z,2.25
2023-01-19T14:39:54.952Z,2.20
2023-01-19T14:42:25.998Z,2.19
2023-01-19T14:44:54.137Z,2.14
2023-01-19T14:47:29.354Z,2.11
2023-01-19T14:50:00.497Z,2.01
2023-01-19T14:52:57.315Z,1.89
2023-01-19T14:55:31.971Z,1.78
2023-01-19T14:58:03.778Z,1.77
2023-01-19T15:00:30.177Z,1.67
2023-01-19T15:02:56.669Z,1.68
2023-01-19T15:05:23.267Z,1.56
2023-01-19T15:07:49.695Z,1.61
2023-01-19T15:10:20.895Z,1.54
2023-01-19T15:12:49.080Z,1.48
2023-01-19T15:15:18.498Z,1.49
2023-01-19T15:17:45.310Z,1.46
2023-01-19T15:20:15.195Z,1.48
2023-01-19T15:22:41.589Z,1.50
2023-01-19T15:25:09.551Z,1.52
2023-01-19T15:27:36.097Z,1.49
2023-01-19T15:30:02.405Z,1.49
2023-01-19T15:32:28.736Z,1.48
2023-01-19T15:34:55.015Z,1.39
2023-01-19T15:37:21.365Z,1.38
2023-01-19T15:39:47.680Z,1.42
2023-01-19T15:42:14.798Z,1.36
2023-01-19T15:44:41.195Z,1.38
2023-01-19T15:47:09.727Z,1.35
2023-01-19T15:49:36.077Z,1.34
2023-01-19T15:52:02.360Z,1.38
2023-01-19T15:54:28.726Z,1.37
2023-01-19T15:56:55.133Z,1.39
2023-01-19T15:59:21.662Z,1.38
2023-01-19T16:01:50.021Z,1.32
2023-01-19T16:04:18.024Z,1.29
2023-01-19T16:06:44.572Z,1.35
2023-01-19T16:09:16.578Z,1.31
2023-01-19T16:11:42.900Z,1.30
2023-01-19T16:14:09.299Z,1.25
2023-01-19T16:16:35.767Z,1.23
2023-01-19T16:19:02.234Z,1.25
2023-01-19T16:21:28.526Z,1.22
2023-01-19T16:23:55.289Z,1.22
2023-01-19T16:26:35.194Z,1.19
2023-01-19T16:29:08.525Z,1.15
2023-01-19T16:31:36.080Z,1.20
2023-01-19T16:34:02.515Z,1.21
2023-01-19T16:36:36.229Z,1.17
2023-01-19T16:39:13.691Z,1.21
2023-01-19T16:41:40.113Z,1.16
2023-01-19T16:44:06.625Z,1.16
2023-01-19T16:46:35.429Z,1.16
2023-01-19T16:49:07.388Z,1.09
2023-01-19T16:51:33.757Z,1.01
2023-01-19T16:54:00.167Z,0.97
2023-01-19T16:56:26.525Z,0.92
2023-01-19T16:58:54.197Z,0.86
2023-01-19T17:01:21.234Z,0.79
2023-01-19T17:03:48.372Z,0.77
2023-01-19T17:06:22.618Z,0.68
2023-01-19T17:08:50.251Z,0.67
2023-01-19T17:11:20.700Z,0.66
2023-01-19T17:13:53.987Z,0.60
2023-01-19T17:16:21.305Z,0.62
2023-01-19T17:18:47.699Z,0.59
2023-01-19T17:21:17.742Z,0.60
2023-01-19T17:23:46.624Z,0.59
2023-01-19T17:26:13.651Z,0.50
2023-01-19T17:28:40.094Z,0.53
2023-01-19T17:31:08.905Z,0.54
2023-01-19T17:33:35.411Z,0.56
2023-01-19T17:36:04.282Z,0.51
2023-01-19T17:38:30.656Z,0.51
2023-01-19T17:40:57.058Z,0.51
2023-01-19T17:43:23.396Z,0.53
2023-01-19T17:45:49.864Z,0.53
2023-01-19T17:48:17.438Z,0.52
2023-01-19T17:50:44.803Z,0.53
2023-01-19T17:53:11.813Z,0.58
2023-01-19T17:55:38.179Z,0.50
2023-01-19T17:58:04.555Z,0.48
2023-01-19T18:00:31.047Z,0.44
2023-01-19T18:02:57.448Z,0.45
2023-01-19T18:05:24.430Z,0.46
2023-01-19T18:07:50.781Z,0.44
2023-01-19T18:10:17.366Z,0.40
2023-01-19T18:12:45.108Z,0.53
2023-01-19T18:15:12.274Z,0.51
2023-01-19T18:17:38.579Z,0.52
2023-01-19T18:20:05.419Z,0.49
2023-01-19T18:22:32.124Z,0.50
2023-01-19T18:24:58.440Z,0.51
2023-01-19T18:27:24.757Z,0.45
2023-01-19T18:29:51.043Z,0.47
2023-01-19T18:32:17.488Z,0.50
2023-01-19T18:34:43.969Z,0.45
2023-01-19T18:37:10.267Z,0.47
2023-01-19T18:39:36.625Z,0.45
2023-01-19T18:42:03.192Z,0.43
2023-01-19T18:44:29.514Z,0.46
2023-01-19T18:46:56.667Z,0.47
2023-01-19T18:49:23.200Z,0.49
2023-01-19T18:51:49.544Z,0.42
2023-01-19T18:54:17.370Z,0.45
2023-01-19T18:56:43.923Z,0.44
2023-01-19T18:59:10.647Z,0.49
2023-01-19T19:01:37.239Z,0.47
2023-01-19T19:04:03.802Z,0.46
2023-01-19T19:06:30.209Z,0.38
2023-01-19T19:08:59.221Z,0.42
2023-01-19T19:11:26.328Z,0.36
2023-01-19T19:13:54.878Z,0.36
2023-01-19T19:16:21.470Z,0.38
2023-01-19T19:18:51.083Z,0.32
2023-01-19T19:21:18.617Z,0.34
2023-01-19T19:23:49.725Z,0.32
2023-01-19T19:26:16.070Z,0.32
2023-01-19T19:28:42.443Z,0.31
2023-01-19T19:31:11.848Z,0.27
2023-01-19T19:33:39.179Z,0.30
2023-01-19T19:36:07.111Z,0.30
2023-01-19T19:38:34.617Z,0.31
2023-01-19T19:41:05.723Z,0.37
2023-01-19T19:43:32.950Z,0.32
2023-01-19T19:46:10.858Z,0.27
2023-01-19T19:48:39.329Z,0.28
2023-01-19T19:51:25.561Z,0.26
2023-01-19T19:53:53.544Z,0.26
2023-01-19T19:56:21.845Z,0.23
2023-01-19T19:58:49.008Z,0.26
2023-01-19T20:01:18.401Z,0.26
2023-01-19T20:03:45.546Z,0.21
2023-01-19T20:06:14.819Z,0.22
2023-01-19T20:08:42.047Z,0.25
2023-01-19T20:11:09.931Z,0.26
2023-01-19T20:13:38.389Z,0.20
2023-01-19T20:16:07.507Z,0.12
2023-01-19T20:18:33.931Z,0.18
2023-01-19T20:21:00.508Z,0.19
2023-01-19T20:23:27.100Z,0.17
2023-01-19T20:25:53.598Z,0.16
2023-01-19T20:28:19.971Z,0.14
2023-01-19T20:30:46.418Z,0.16
2023-01-19T20:33:12.725Z,0.16
2023-01-19T20:35:39.092Z,0.13
2023-01-19T20:38:05.507Z,0.16
2023-01-19T20:40:31.846Z,0.14
2023-01-19T20:42:58.243Z,0.16
2023-01-19T20:45:25.888Z,0.15
2023-01-19T20:47:52.671Z,0.14
2023-01-19T20:50:19.006Z,0.16
2023-01-19T20:52:45.317Z,0.17
2023-01-19T20:55:14.030Z,0.17
2023-01-19T20:57:40.477Z,0.14
2023-01-19T21:00:07.330Z,0.15
2023-01-19T21:02:33.708Z,0.04
2023-01-19T21:05:00.138Z,0.03
2023-01-19T21:07:26.555Z,0.01
2023-01-19T21:09:52.835Z,-0.04
2023-01-19T21:12:21.270Z,-0.03
2023-01-19T21:14:47.618Z,-0.02
2023-01-19T21:17:14.014Z,-0.05
2023-01-19T21:19:40.384Z,0.02
2023-01-19T21:22:06.691Z,-0.05
2023-01-19T21:24:33.074Z,-0.07
2023-01-19T21:26:59.385Z,-0.10
2023-01-19T21:29:25.835Z,-0.11
2023-01-19T21:31:52.148Z,-0.14
2023-01-19T21:34:18.695Z,-0.10
2023-01-19T21:36:45.264Z,-0.19
2023-01-19T21:39:11.619Z,-0.19
2023-01-19T21:41:39.816Z,-0.24
2023-01-19T21:44:06.289Z,-0.28
2023-01-19T21:46:33.901Z,-0.24
2023-01-19T21:49:02.612Z,-0.22
2023-01-19T21:51:30.072Z,-0.21
2023-01-19T21:53:59.348Z,-0.33
2023-01-19T21:56:27.458Z,-0.24
2023-01-19T21:58:54.457Z,-0.29
2023-01-19T22:01:22.937Z,-0.29
2023-01-19T22:03:54.600Z,-0.33
2023-01-19T22:06:21.332Z,-0.38
2023-01-19T22:08:47.941Z,-0.42
2023-01-19T22:11:16.624Z,-0.48
2023-01-19T22:13:43.461Z,-0.49
2023-01-19T22:16:13.875Z,-0.56
2023-01-19T22:18:42.744Z,-0.63
2023-01-19T22:21:14.947Z,-0.67
2023-01-19T22:23:42.409Z,-0.77
2023-01-19T22:26:11.056Z,-0.80
2023-01-19T22:28:38.202Z,-0.80
2023-01-19T22:31:07.930Z,-0.80
2023-01-19T22:33:34.625Z,-0.83
2023-01-19T22:36:12.770Z,-0.93
2023-01-19T22:38:40.199Z,-1.01
2023-01-19T22:41:23.199Z,-1.02
2023-01-19T22:43:52.328Z,-1.05
2023-01-19T22:46:20.774Z,-1.17
2023-01-19T22:48:48.674Z,-1.26
2023-01-19T22:51:16.248Z,-1.32
2023-01-19T22:53:42.587Z,-1.23
2023-01-19T22:56:17.334Z,-1.26
2023-01-19T22:58:44.955Z,-1.26
2023-01-19T23:01:14.364Z,-1.25
2023-01-19T23:03:41.439Z,-1.20
2023-01-19T23:06:10.876Z,-1.18
2023-01-19T23:08:37.908Z,-1.24
2023-01-19T23:11:09.481Z,-1.27
2023-01-19T23:13:37.061Z,-1.26
2023-01-19T23:16:05.222Z,-1.26
2023-01-19T23:18:31.895Z,-1.30
2023-01-19T23:21:10.720Z,-1.29
2023-01-19T23:23:37.419Z,-1.36
2023-01-19T23:26:23.785Z,-1.42
2023-01-19T23:28:55.998Z,-1.36
2023-01-19T23:31:26.624Z,-1.40
2023-01-19T23:33:58.402Z,-1.51
2023-01-19T23:36:27.102Z,-1.53
2023-01-19T23:38:56.354Z,-1.58
2023-01-19T23:41:24.318Z,-1.64
2023-01-19T23:43:51.071Z,-1.74
2023-01-19T23:46:18.800Z,-1.74
2023-01-19T23:48:45.321Z,-1.83
2023-01-19T23:51:21.361Z,-1.82
2023-01-19T23:53:48.670Z,-1.92
2023-01-19T23:56:23.625Z,-1.91
2023-01-19T23:58:58.434Z,-1.90
